Time;durP1;ratioP1;P1;durP2;ratioP2;P2;SDS_P1;SDS_P2;PMS_P1;PMS_P2;Temp;Humidity;BMP_temperature;BMP_pressure;BME280_temperature;BME280_humidity;BME280_pressure;Samples;Min_cycle;Max_cycle;Signal;HPM_P1;HPM_P2
2023/03/28 00:00:08;;;;;;;1.10;0.70;;;3.00;99.90;;;;;;5068472;28;20442;-67
2023/03/28 00:02:36;;;;;;;1.00;0.70;;;3.00;99.90;;;;;;5076427;28;20522;-66
2023/03/28 00:05:03;;;;;;;1.67;0.80;;;3.20;99.90;;;;;;5058772;28;20958;-70
2023/03/28 00:07:30;;;;;;;1.13;0.63;;;3.20;99.90;;;;;;5056472;28;20554;-69
2023/03/28 00:09:57;;;;;;;0.80;0.50;;;3.00;99.90;;;;;;5056856;28;20467;-70
2023/03/28 00:12:24;;;;;;;1.17;0.80;;;2.80;99.90;;;;;;5056322;28;22133;-71
2023/03/28 00:14:51;;;;;;;0.83;0.60;;;2.60;99.90;;;;;;5058080;28;20514;-70
2023/03/28 00:17:18;;;;;;;1.10;0.80;;;2.40;99.90;;;;;;5077886;28;20474;-55
2023/03/28 00:19:49;;;;;;;0.80;0.60;;;2.30;99.90;;;;;;5061562;28;20938;-72
2023/03/28 00:22:18;;;;;;;0.80;0.60;;;2.10;99.90;;;;;;5069386;28;20434;-55
2023/03/28 00:24:49;;;;;;;1.33;0.60;;;2.10;99.90;;;;;;5068012;28;21002;-72
2023/03/28 00:27:16;;;;;;;0.90;0.60;;;2.10;99.90;;;;;;5057856;28;20423;-72
2023/03/28 00:29:44;;;;;;;0.90;0.60;;;2.00;99.90;;;;;;5057378;28;20476;-70
2023/03/28 00:32:12;;;;;;;0.80;0.57;;;1.80;99.90;;;;;;5078753;28;20474;-62
2023/03/28 00:34:39;;;;;;;2.80;0.80;;;1.60;99.90;;;;;;5069576;28;20459;-59
2023/03/28 00:37:09;;;;;;;1.80;1.10;;;1.60;99.90;;;;;;5059752;28;20558;-72
2023/03/28 00:39:36;;;;;;;0.93;0.70;;;1.60;99.90;;;;;;5058363;28;20916;-70
2023/03/28 00:42:03;;;;;;;2.03;0.93;;;1.50;99.90;;;;;;5057596;28;20443;-74
2023/03/28 00:44:51;;;;;;;5.93;1.30;;;1.50;99.90;;;;;;5056049;28;20463;-70
2023/03/28 00:47:39;;;;;;;0.80;0.60;;;1.60;99.90;;;;;;5069770;28;20463;-66
2023/03/28 00:50:15;;;;;;;1.10;1.00;;;1.70;99.90;;;;;;5073363;28;20428;-51
2023/03/28 00:52:49;;;;;;;2.90;1.13;;;1.80;99.90;;;;;;5058344;28;20471;-63
2023/03/28 00:55:20;;;;;;;0.90;0.70;;;1.90;99.90;;;;;;5037290;28;20891;-72
2023/03/28 00:57:49;;;;;;;1.37;0.70;;;1.90;99.90;;;;;;5043652;28;20486;-72
2023/03/28 01:00:19;;;;;;;1.50;0.90;;;1.90;99.90;;;;;;5058637;28;20443;-70
2023/03/28 01:02:51;;;;;;;1.20;0.90;;;2.00;99.90;;;;;;5072937;28;20427;-56
2023/03/28 01:05:19;;;;;;;1.00;0.70;;;2.10;99.90;;;;;;5077009;28;20467;-57
2023/03/28 01:07:54;;;;;;;3.53;0.70;;;2.00;99.90;;;;;;5079389;28;20443;-57
2023/03/28 01:10:21;;;;;;;1.30;0.80;;;2.10;99.90;;;;;;5070730;28;20501;-61
2023/03/28 01:12:49;;;;;;;1.10;0.60;;;2.10;99.90;;;;;;5041928;28;20452;-73
2023/03/28 01:15:18;;;;;;;4.90;0.80;;;2.10;99.90;;;;;;5036536;28;20519;-70
2023/03/28 01:17:47;;;;;;;1.83;1.37;;;2.10;99.90;;;;;;5071207;28;20605;-63
2023/03/28 01:20:26;;;;;;;1.00;0.70;;;2.20;99.90;;;;;;5077143;28;20431;-73
2023/03/28 01:23:28;;;;;;;1.00;0.60;;;2.10;99.90;;;;;;5077467;28;20434;-52
2023/03/28 01:26:24;;;;;;;3.93;0.63;;;2.20;99.90;;;;;;5059954;28;20514;-72
2023/03/28 01:29:20;;;;;;;3.23;1.47;;;2.20;99.90;;;;;;5071411;28;20474;-67
2023/03/28 01:32:10;;;;;;;1.20;1.00;;;2.20;99.90;;;;;;5073312;28;20498;-70
2023/03/28 01:34:52;;;;;;;1.93;0.87;;;2.10;99.90;;;;;;5061216;28;20455;-72
2023/03/28 01:37:33;;;;;;;2.27;0.63;;;2.10;99.90;;;;;;5072443;28;20460;-57
2023/03/28 01:40:14;;;;;;;1.00;0.80;;;2.10;99.90;;;;;;5076550;28;20450;-71
2023/03/28 01:42:50;;;;;;;0.83;0.60;;;2.10;99.90;;;;;;5060737;28;20435;-70
2023/03/28 01:45:21;;;;;;;2.27;1.27;;;2.10;99.90;;;;;;5058821;28;20467;-72
2023/03/28 01:47:56;;;;;;;2.90;0.80;;;2.20;99.90;;;;;;5059677;28;20463;-68
2023/03/28 01:50:29;;;;;;;0.80;0.60;;;2.30;99.90;;;;;;5060109;28;20510;-70
2023/03/28 01:53:06;;;;;;;0.80;0.60;;;2.30;99.90;;;;;;5060902;28;20807;-62
2023/03/28 01:55:37;;;;;;;4.20;1.10;;;2.40;99.90;;;;;;5076209;28;20475;-55
2023/03/28 01:58:13;;;;;;;1.77;1.00;;;2.40;99.90;;;;;;5076971;28;20466;-62
2023/03/28 02:00:42;;;;;;;3.00;1.47;;;2.40;99.90;;;;;;5056493;28;20455;-71
2023/03/28 02:03:17;;;;;;;1.20;0.90;;;2.40;99.90;;;;;;5070676;28;20454;-66
2023/03/28 02:05:47;;;;;;;3.00;0.83;;;2.50;99.90;;;;;;5077603;28;20462;-60
2023/03/28 02:08:16;;;;;;;16.40;1.47;;;2.60;99.90;;;;;;5046289;28;20499;-69
2023/03/28 02:10:46;;;;;;;4.77;0.93;;;2.70;99.90;;;;;;5058259;28;20459;-72
2023/03/28 02:13:17;;;;;;;1.00;0.70;;;2.70;99.90;;;;;;5070617;28;20456;-56
2023/03/28 02:15:48;;;;;;;1.70;1.00;;;2.70;99.90;;;;;;5053597;28;20471;-61
2023/03/28 02:18:23;;;;;;;0.93;0.60;;;2.60;99.90;;;;;;5072732;28;20494;-67
2023/03/28 02:20:55;;;;;;;2.37;1.00;;;2.60;99.90;;;;;;5063654;28;20459;-69
2023/03/28 02:23:28;;;;;;;1.00;0.80;;;2.60;99.90;;;;;;5063275;28;20482;-72
2023/03/28 02:25:59;;;;;;;1.33;0.80;;;2.50;99.90;;;;;;5056817;28;20924;-70
2023/03/28 02:28:27;;;;;;;1.53;0.80;;;2.40;99.90;;;;;;5060308;28;20439;-70
2023/03/28 02:30:54;;;;;;;1.60;0.90;;;2.30;99.90;;;;;;5054995;28;20502;-68
2023/03/28 02:33:36;;;;;;;1.40;0.70;;;2.30;99.90;;;;;;5061181;28;20502;-71
2023/03/28 02:36:16;;;;;;;1.30;0.90;;;2.30;99.90;;;;;;5053314;28;20467;-71
2023/03/28 02:38:51;;;;;;;3.00;1.20;;;2.30;99.90;;;;;;5064555;28;20505;-70
2023/03/28 02:41:29;;;;;;;0.90;0.70;;;2.20;99.90;;;;;;5072093;28;20450;-67
2023/03/28 02:44:12;;;;;;;3.43;0.80;;;2.20;99.90;;;;;;5061529;28;20489;-72
2023/03/28 02:46:52;;;;;;;1.47;0.90;;;2.10;99.90;;;;;;5055485;28;21010;-71
2023/03/28 02:49:48;;;;;;;2.30;1.17;;;2.00;99.90;;;;;;5075394;28;20424;-63
2023/03/28 02:52:29;;;;;;;1.23;0.80;;;2.00;99.90;;;;;;5048745;28;20464;-68
2023/03/28 02:55:02;;;;;;;0.90;0.60;;;1.90;99.90;;;;;;5052376;28;20526;-72
2023/03/28 02:57:33;;;;;;;1.30;0.90;;;2.00;99.90;;;;;;5059668;28;20463;-61
2023/03/28 03:00:11;;;;;;;2.20;0.70;;;2.00;99.90;;;;;;5061966;28;20463;-71
2023/03/28 03:02:42;;;;;;;0.80;0.60;;;2.00;99.90;;;;;;5059034;28;20471;-71
2023/03/28 03:05:10;;;;;;;0.90;0.60;;;2.10;99.90;;;;;;5057759;28;20494;-72
2023/03/28 03:07:38;;;;;;;1.37;0.90;;;2.10;99.90;;;;;;5055332;28;20501;-73
2023/03/28 03:10:11;;;;;;;1.27;1.00;;;2.10;99.90;;;;;;5058246;28;20459;-71
2023/03/28 03:12:40;;;;;;;1.10;0.77;;;2.20;99.90;;;;;;5057793;28;20490;-69
2023/03/28 03:15:10;;;;;;;1.10;0.70;;;2.20;99.90;;;;;;5058356;28;20487;-66
2023/03/28 03:17:37;;;;;;;2.60;1.03;;;2.30;99.90;;;;;;5056215;28;20493;-71
2023/03/28 03:20:08;;;;;;;5.80;1.20;;;2.60;99.90;;;;;;5058934;28;20497;-71
2023/03/28 03:22:36;;;;;;;2.60;0.83;;;2.30;99.90;;;;;;5062867;28;20541;-70
2023/03/28 03:25:06;;;;;;;1.50;0.70;;;2.30;99.90;;;;;;5066930;28;20502;-70
2023/03/28 03:27:36;;;;;;;1.00;0.70;;;2.30;99.90;;;;;;5046800;28;20444;-71
2023/03/28 03:30:06;;;;;;;2.00;1.00;;;2.30;99.90;;;;;;5059550;28;20474;-65
2023/03/28 03:32:32;;;;;;;2.23;1.00;;;2.30;99.90;;;;;;5061082;28;20443;-68
2023/03/28 03:34:59;;;;;;;1.00;0.70;;;2.30;99.90;;;;;;5059144;28;20516;-71
2023/03/28 03:37:27;;;;;;;3.37;0.90;;;2.30;99.90;;;;;;5062921;28;20574;-72
2023/03/28 03:39:58;;;;;;;4.30;0.90;;;2.30;99.90;;;;;;5062308;28;20920;-62
2023/03/28 03:42:25;;;;;;;5.10;1.00;;;2.20;99.90;;;;;;5074607;28;20467;-71
2023/03/28 03:44:54;;;;;;;0.90;0.70;;;2.10;99.90;;;;;;5061019;28;20453;-71
2023/03/28 03:47:21;;;;;;;1.10;0.90;;;2.00;99.90;;;;;;5062334;28;20454;-58
2023/03/28 03:49:48;;;;;;;1.37;0.87;;;2.00;99.90;;;;;;5063020;28;20467;-68
2023/03/28 03:52:14;;;;;;;1.77;1.10;;;2.10;99.90;;;;;;5063441;28;20439;-74
2023/03/28 03:54:41;;;;;;;0.90;0.70;;;2.10;99.90;;;;;;5060022;28;20447;-73
2023/03/28 03:57:11;;;;;;;5.43;1.17;;;2.00;99.90;;;;;;5063553;28;20486;-70
2023/03/28 03:59:38;;;;;;;6.30;1.90;;;2.00;99.90;;;;;;5056331;28;20467;-54
2023/03/28 04:02:07;;;;;;;2.00;1.37;;;2.00;99.90;;;;;;5055283;28;20518;-55
2023/03/28 04:04:35;;;;;;;15.77;2.43;;;2.00;99.90;;;;;;5065052;28;20899;-70
2023/03/28 04:07:02;;;;;;;1.20;0.70;;;2.00;99.90;;;;;;5068111;28;20513;-62
2023/03/28 04:09:29;;;;;;;1.10;0.80;;;2.00;99.90;;;;;;5076690;28;20485;-71
2023/03/28 04:11:56;;;;;;;0.90;0.70;;;2.00;99.90;;;;;;5058792;28;20447;-70
2023/03/28 04:14:23;;;;;;;2.20;1.10;;;2.00;99.90;;;;;;5068448;28;20509;-52
2023/03/28 04:16:52;;;;;;;1.53;0.90;;;2.00;99.90;;;;;;5074365;28;20470;-71
2023/03/28 04:19:23;;;;;;;3.47;1.70;;;2.00;99.90;;;;;;5070520;28;20467;-54
2023/03/28 04:21:55;;;;;;;2.23;1.00;;;2.00;99.90;;;;;;5059996;28;20452;-70
2023/03/28 04:24:24;;;;;;;1.53;0.90;;;2.10;99.90;;;;;;5067970;28;20758;-71
2023/03/28 04:26:54;;;;;;;2.30;1.10;;;2.00;99.90;;;;;;5057504;28;20558;-71
2023/03/28 04:29:29;;;;;;;2.53;1.10;;;2.00;99.90;;;;;;5051956;28;20483;-70
2023/03/28 04:31:57;;;;;;;2.07;0.73;;;2.00;99.90;;;;;;5056684;28;20558;-69
2023/03/28 04:34:28;;;;;;;0.97;0.73;;;2.00;99.90;;;;;;5070289;28;20494;-63
2023/03/28 04:37:00;;;;;;;1.10;0.70;;;2.00;99.90;;;;;;5074737;28;20455;-70
2023/03/28 04:39:27;;;;;;;5.90;1.20;;;1.90;99.90;;;;;;5077586;28;20451;-58
2023/03/28 04:41:54;;;;;;;7.40;2.00;;;1.90;99.90;;;;;;5071429;28;20451;-70
2023/03/28 04:44:22;;;;;;;19.33;2.03;;;1.90;99.90;;;;;;5069410;28;20826;-73
2023/03/28 04:46:49;;;;;;;1.00;0.73;;;1.90;99.90;;;;;;5073944;28;20467;-63
2023/03/28 04:49:17;;;;;;;2.70;1.00;;;1.80;99.90;;;;;;5079002;28;20458;-64
2023/03/28 04:51:45;;;;;;;3.70;0.80;;;1.90;99.90;;;;;;5060367;28;20473;-67
2023/03/28 04:54:12;;;;;;;4.33;0.80;;;1.70;99.90;;;;;;5059728;28;20529;-66
2023/03/28 04:56:39;;;;;;;0.90;0.60;;;1.70;99.90;;;;;;5078158;28;20440;-61
2023/03/28 04:59:06;;;;;;;8.33;1.10;;;1.60;99.90;;;;;;5061706;28;20475;-70
2023/03/28 05:01:35;;;;;;;2.87;1.20;;;1.60;99.90;;;;;;5074244;28;20533;-56
2023/03/28 05:04:02;;;;;;;3.10;1.73;;;1.60;99.90;;;;;;5078848;28;20459;-53
2023/03/28 05:06:29;;;;;;;1.30;1.00;;;1.70;99.90;;;;;;5079122;28;20447;-67
2023/03/28 05:08:57;;;;;;;1.40;0.70;;;1.70;99.90;;;;;;5076064;28;20439;-56
2023/03/28 05:11:24;;;;;;;1.30;1.10;;;1.70;99.90;;;;;;5078718;28;20450;-64
2023/03/28 05:13:51;;;;;;;1.33;0.80;;;1.70;99.90;;;;;;5078384;28;20462;-64
2023/03/28 05:16:18;;;;;;;1.33;0.73;;;1.80;99.90;;;;;;5073686;28;20467;-63
2023/03/28 05:18:46;;;;;;;0.87;0.63;;;1.80;99.90;;;;;;5078609;28;20464;-65
2023/03/28 05:21:13;;;;;;;1.73;0.77;;;1.80;99.90;;;;;;5067425;28;20462;-70
2023/03/28 05:23:39;;;;;;;1.50;0.90;;;1.80;99.90;;;;;;5055155;28;20513;-70
2023/03/28 05:26:08;;;;;;;3.30;1.37;;;1.90;99.90;;;;;;5077818;28;20427;-55
2023/03/28 05:28:35;;;;;;;1.20;0.93;;;1.90;99.90;;;;;;5079371;28;20416;-55
2023/03/28 05:31:02;;;;;;;2.40;1.10;;;2.00;99.90;;;;;;5079341;28;20450;-62
2023/03/28 05:33:31;;;;;;;0.93;0.70;;;2.10;99.90;;;;;;5058325;28;20432;-53
2023/03/28 05:35:59;;;;;;;2.20;0.90;;;2.00;99.90;;;;;;5072065;28;20487;-56
2023/03/28 05:38:26;;;;;;;1.63;0.83;;;2.00;99.90;;;;;;5058210;28;20475;-63
2023/03/28 05:40:53;;;;;;;3.23;0.80;;;2.00;99.90;;;;;;5064589;28;20526;-62
2023/03/28 05:43:21;;;;;;;1.87;1.00;;;2.00;99.90;;;;;;5071966;28;20838;-56
2023/03/28 05:45:51;;;;;;;2.60;1.20;;;1.90;99.90;;;;;;5061654;28;20447;-63
2023/03/28 05:48:18;;;;;;;1.53;1.37;;;1.90;99.90;;;;;;5075407;28;20500;-55
2023/03/28 05:50:47;;;;;;;2.30;1.00;;;1.80;99.90;;;;;;5076456;28;20430;-60
2023/03/28 05:53:14;;;;;;;4.63;0.90;;;1.70;99.90;;;;;;5077185;28;20513;-58
2023/03/28 05:55:41;;;;;;;2.30;1.03;;;1.70;99.90;;;;;;5065236;28;20462;-64
2023/03/28 05:58:09;;;;;;;3.03;1.27;;;1.80;99.90;;;;;;5063380;28;20487;-68
2023/03/28 06:00:37;;;;;;;1.93;1.03;;;1.90;99.90;;;;;;5075701;28;20502;-62
2023/03/28 06:03:08;;;;;;;3.80;2.20;;;1.90;99.90;;;;;;5060694;28;20479;-58
2023/03/28 06:05:37;;;;;;;1.20;0.73;;;2.00;99.90;;;;;;5077167;28;20456;-61
2023/03/28 06:08:04;;;;;;;1.27;0.67;;;2.00;99.90;;;;;;5078057;28;20446;-48
2023/03/28 06:10:31;;;;;;;3.87;1.50;;;1.90;99.90;;;;;;5057140;28;20490;-62
2023/03/28 06:12:57;;;;;;;9.50;1.83;;;2.00;99.90;;;;;;5046548;28;20451;-64
2023/03/28 06:15:26;;;;;;;3.10;1.00;;;2.00;99.90;;;;;;5077048;28;20455;-62
2023/03/28 06:17:54;;;;;;;1.87;1.20;;;1.90;99.90;;;;;;5069340;28;20574;-62
2023/03/28 06:20:21;;;;;;;2.47;0.97;;;1.90;99.90;;;;;;5058783;28;20497;-68
2023/03/28 06:22:48;;;;;;;1.10;0.90;;;1.90;99.90;;;;;;5073961;28;20440;-60
2023/03/28 06:25:15;;;;;;;6.00;1.10;;;2.00;99.90;;;;;;5070393;28;20489;-58
2023/03/28 06:27:42;;;;;;;2.13;1.90;;;2.00;99.90;;;;;;5061404;28;21011;-69
2023/03/28 06:30:10;;;;;;;3.40;1.17;;;2.00;99.90;;;;;;5057339;28;20451;-67
2023/03/28 06:32:37;;;;;;;1.20;0.90;;;2.10;99.90;;;;;;5061860;28;20444;-53
2023/03/28 06:35:07;;;;;;;5.17;1.37;;;2.20;99.90;;;;;;5075376;28;20469;-68
2023/03/28 06:37:34;;;;;;;3.20;1.10;;;2.10;99.90;;;;;;5064731;28;20436;-65
2023/03/28 06:40:02;;;;;;;4.00;0.80;;;2.10;99.90;;;;;;5070687;28;20760;-61
2023/03/28 06:42:29;;;;;;;2.83;1.20;;;2.20;99.90;;;;;;5073107;28;20451;-64
2023/03/28 06:44:56;;;;;;;0.90;0.70;;;2.10;99.90;;;;;;5057618;28;20471;-69
2023/03/28 06:47:25;;;;;;;6.10;0.90;;;2.20;99.90;;;;;;5070268;28;20656;-64
2023/03/28 06:49:52;;;;;;;1.40;0.70;;;2.30;99.90;;;;;;5075464;28;20452;-65
2023/03/28 06:52:22;;;;;;;1.33;0.87;;;2.30;99.90;;;;;;5054701;28;20452;-60
2023/03/28 06:54:49;;;;;;;3.70;1.03;;;2.40;99.90;;;;;;5059886;28;20554;-63
2023/03/28 06:57:16;;;;;;;3.13;0.93;;;2.50;99.90;;;;;;5073645;28;20666;-68
2023/03/28 06:59:43;;;;;;;3.67;0.90;;;2.50;99.90;;;;;;5062699;28;20581;-54
2023/03/28 07:02:11;;;;;;;3.77;1.73;;;2.50;99.90;;;;;;5057524;28;20555;-66
2023/03/28 07:04:38;;;;;;;4.20;1.40;;;2.50;99.90;;;;;;5066986;28;20511;-58
2023/03/28 07:07:06;;;;;;;1.63;1.20;;;2.50;99.90;;;;;;5072955;28;20477;-72
2023/03/28 07:09:36;;;;;;;1.73;0.80;;;2.50;99.90;;;;;;5063125;28;20432;-60
2023/03/28 07:12:04;;;;;;;4.33;1.07;;;2.50;99.90;;;;;;5068257;28;20490;-60
2023/03/28 07:14:31;;;;;;;3.07;2.30;;;2.50;99.90;;;;;;5065439;28;20475;-61
2023/03/28 07:16:58;;;;;;;4.50;1.33;;;2.60;99.90;;;;;;5056223;28;20467;-60
2023/03/28 07:19:25;;;;;;;1.30;0.90;;;2.60;99.90;;;;;;5043783;28;20566;-65
2023/03/28 07:21:52;;;;;;;2.07;1.00;;;2.70;99.90;;;;;;5055622;28;20456;-58
2023/03/28 07:24:22;;;;;;;3.63;0.97;;;2.70;99.90;;;;;;5068932;28;20473;-61
2023/03/28 07:26:50;;;;;;;3.93;2.33;;;2.80;99.90;;;;;;5089715;28;20454;-71
2023/03/28 07:29:17;;;;;;;1.20;0.80;;;2.80;99.90;;;;;;5078625;28;20492;-66
2023/03/28 07:31:44;;;;;;;2.80;1.27;;;2.80;99.90;;;;;;5072686;28;20475;-58
2023/03/28 07:34:11;;;;;;;3.93;1.70;;;2.80;99.90;;;;;;5067627;28;20411;-59
2023/03/28 07:36:39;;;;;;;2.20;1.00;;;2.80;99.90;;;;;;5063814;28;20470;-67
2023/03/28 07:39:07;;;;;;;1.27;0.87;;;2.90;99.90;;;;;;5073898;28;20490;-60
2023/03/28 07:41:37;;;;;;;1.80;1.10;;;3.00;99.90;;;;;;5076872;28;20443;-62
2023/03/28 07:44:12;;;;;;;4.40;1.27;;;3.00;99.90;;;;;;5076593;28;20478;-57
2023/03/28 07:46:40;;;;;;;1.20;0.97;;;3.10;99.90;;;;;;5075524;28;20466;-64
2023/03/28 07:49:07;;;;;;;4.30;0.90;;;3.10;99.90;;;;;;5060163;28;20447;-59
2023/03/28 07:51:34;;;;;;;2.47;1.23;;;3.10;99.90;;;;;;5075790;28;20517;-60
2023/03/28 07:54:03;;;;;;;4.10;0.80;;;3.20;99.90;;;;;;5067214;28;20428;-61
2023/03/28 07:56:34;;;;;;;1.00;0.67;;;3.20;99.90;;;;;;5075926;28;20451;-56
2023/03/28 07:59:03;;;;;;;2.73;0.93;;;3.30;99.90;;;;;;5076608;28;20471;-55
2023/03/28 08:01:32;;;;;;;1.77;1.00;;;3.40;99.90;;;;;;5075840;28;20447;-60
2023/03/28 08:03:59;;;;;;;1.43;0.73;;;3.50;99.90;;;;;;5043133;28;20825;-70
2023/03/28 08:06:26;;;;;;;3.40;1.00;;;3.60;99.90;;;;;;5072745;28;20486;-61
2023/03/28 08:08:53;;;;;;;1.90;1.07;;;3.70;99.90;;;;;;5078282;28;20443;-63
2023/03/28 08:11:21;;;;;;;1.47;1.17;;;3.80;99.90;;;;;;5078781;28;20423;-66
2023/03/28 08:13:48;;;;;;;2.03;1.10;;;3.80;99.90;;;;;;5076723;28;20500;-70
2023/03/28 08:16:15;;;;;;;8.80;1.27;;;3.90;99.90;;;;;;5064837;28;20499;-63
2023/03/28 08:18:44;;;;;;;1.10;1.00;;;4.10;99.90;;;;;;5065037;28;20566;-70
2023/03/28 08:21:11;;;;;;;2.03;1.40;;;4.20;99.90;;;;;;5075888;28;20584;-63
2023/03/28 08:23:38;;;;;;;3.43;1.13;;;4.40;99.90;;;;;;5054715;28;20871;-69
2023/03/28 08:26:06;;;;;;;1.00;0.77;;;5.30;99.90;;;;;;5062161;28;20485;-70
2023/03/28 08:28:35;;;;;;;2.13;1.20;;;7.10;99.90;;;;;;5075523;28;20471;-70
2023/03/28 08:31:02;;;;;;;2.80;1.10;;;8.40;99.90;;;;;;5069888;28;20503;-60
2023/03/28 08:33:31;;;;;;;1.63;0.80;;;9.90;92.10;;;;;;5074419;28;20463;-69
2023/03/28 08:36:00;;;;;;;1.53;0.93;;;10.60;76.80;;;;;;5059413;28;20493;-68
2023/03/28 08:38:31;;;;;;;1.73;1.00;;;11.20;72.80;;;;;;5072775;28;20467;-61
2023/03/28 08:41:07;;;;;;;1.80;1.17;;;11.90;69.90;;;;;;5072601;28;20452;-69
2023/03/28 08:43:54;;;;;;;1.90;0.80;;;12.50;66.70;;;;;;5066486;28;20431;-53
2023/03/28 08:46:27;;;;;;;1.70;1.23;;;13.30;65.00;;;;;;5077361;28;20403;-63
2023/03/28 08:48:57;;;;;;;1.53;1.10;;;13.50;60.10;;;;;;5078657;28;20427;-63
2023/03/28 08:51:30;;;;;;;4.17;2.07;;;13.70;59.60;;;;;;5066644;28;20436;-63
2023/03/28 08:54:09;;;;;;;1.73;1.00;;;13.90;56.80;;;;;;5063109;28;20467;-70
2023/03/28 08:56:44;;;;;;;3.70;0.83;;;13.90;55.40;;;;;;5077655;28;20435;-65
2023/03/28 08:59:14;;;;;;;4.37;1.10;;;13.30;54.90;;;;;;5068079;28;20513;-70
2023/03/28 09:01:42;;;;;;;3.63;1.37;;;13.30;56.10;;;;;;5068564;28;20442;-60
2023/03/28 09:04:19;;;;;;;4.80;1.43;;;13.10;55.60;;;;;;5072771;28;20419;-64
2023/03/28 09:06:51;;;;;;;0.90;0.80;;;13.10;56.70;;;;;;5073198;28;20581;-68
2023/03/28 09:09:37;;;;;;;3.43;0.93;;;13.20;56.30;;;;;;5065835;28;20493;-66
2023/03/28 09:12:18;;;;;;;4.40;1.20;;;12.40;56.60;;;;;;5069301;28;20471;-63
2023/03/28 09:15:14;;;;;;;1.30;1.20;;;11.20;57.80;;;;;;5078149;28;20427;-66
2023/03/28 09:17:52;;;;;;;1.10;0.80;;;9.90;59.80;;;;;;5078261;28;20411;-64
2023/03/28 09:20:25;;;;;;;1.20;0.90;;;8.70;63.90;;;;;;5067316;28;20844;-69
2023/03/28 09:23:08;;;;;;;1.70;0.90;;;8.00;68.30;;;;;;5075526;28;20503;-63
2023/03/28 09:25:41;;;;;;;2.17;0.70;;;7.50;70.10;;;;;;5060317;28;20472;-57
2023/03/28 09:28:20;;;;;;;1.73;1.00;;;7.20;72.50;;;;;;5058181;28;20467;-61
2023/03/28 09:30:50;;;;;;;0.97;0.73;;;6.80;74.80;;;;;;5061670;28;20534;-62
2023/03/28 09:33:21;;;;;;;1.10;0.87;;;6.70;76.70;;;;;;5072681;28;20498;-62
2023/03/28 09:35:50;;;;;;;5.33;1.00;;;6.70;77.90;;;;;;5078404;28;20442;-61
2023/03/28 09:38:25;;;;;;;1.00;0.70;;;6.50;76.60;;;;;;5072403;28;20499;-57
2023/03/28 09:40:57;;;;;;;1.57;1.13;;;6.20;77.80;;;;;;5068507;28;20513;-66
2023/03/28 09:43:31;;;;;;;0.90;0.60;;;6.30;81.40;;;;;;5062867;28;20564;-65
2023/03/28 09:46:01;;;;;;;2.37;0.80;;;7.20;78.50;;;;;;5061193;28;20435;-71
2023/03/28 09:48:31;;;;;;;1.20;0.60;;;7.60;73.50;;;;;;5071713;28;20483;-60
2023/03/28 09:50:58;;;;;;;1.00;0.80;;;8.00;72.00;;;;;;5076411;28;20471;-64
2023/03/28 09:53:28;;;;;;;1.63;0.87;;;9.00;72.70;;;;;;5076812;28;20447;-64
2023/03/28 09:55:59;;;;;;;2.20;0.80;;;10.00;65.70;;;;;;5067826;28;20478;-69
2023/03/28 09:58:29;;;;;;;1.60;0.93;;;10.20;63.90;;;;;;5077767;28;20450;-60
2023/03/28 10:01:04;;;;;;;6.50;1.07;;;10.10;63.10;;;;;;5066037;28;20491;-70
2023/03/28 10:03:33;;;;;;;0.90;0.60;;;10.40;60.40;;;;;;5056754;28;20477;-66
2023/03/28 10:06:19;;;;;;;1.50;1.03;;;10.30;59.90;;;;;;5063699;28;20435;-65
2023/03/28 10:08:51;;;;;;;2.63;1.37;;;10.30;61.30;;;;;;5049878;28;20463;-68
2023/03/28 10:11:21;;;;;;;4.97;0.90;;;10.90;58.40;;;;;;5063248;28;20467;-69
2023/03/28 10:13:50;;;;;;;1.90;1.00;;;10.80;57.90;;;;;;5056977;28;20570;-71
2023/03/28 10:16:25;;;;;;;1.57;0.93;;;10.30;58.70;;;;;;5057735;28;20498;-64
2023/03/28 10:18:53;;;;;;;2.30;0.80;;;9.80;59.30;;;;;;5056088;28;20470;-70
2023/03/28 10:21:25;;;;;;;1.10;0.70;;;9.20;61.80;;;;;;5060191;28;20479;-70
2023/03/28 10:24:05;;;;;;;6.90;0.90;;;8.90;64.20;;;;;;5058606;28;20431;-70
2023/03/28 10:26:33;;;;;;;2.23;1.03;;;9.20;62.20;;;;;;5058154;28;20467;-70
2023/03/28 10:29:07;;;;;;;1.30;0.80;;;8.90;63.10;;;;;;5054246;28;20471;-73
2023/03/28 10:31:40;;;;;;;1.30;0.80;;;8.90;63.40;;;;;;5064006;28;20427;-56
2023/03/28 10:34:24;;;;;;;1.27;0.70;;;8.60;64.30;;;;;;5057774;28;20522;-67
2023/03/28 10:36:51;;;;;;;1.60;0.80;;;8.80;65.10;;;;;;5075603;28;20436;-62
2023/03/28 10:39:24;;;;;;;0.90;0.67;;;9.40;64.20;;;;;;5060424;28;20545;-63
2023/03/28 10:41:55;;;;;;;0.90;0.60;;;10.00;60.10;;;;;;5067166;28;20490;-67
2023/03/28 10:44:28;;;;;;;2.13;1.30;;;9.70;60.80;;;;;;5074965;28;20423;-70
2023/03/28 10:46:59;;;;;;;1.00;0.70;;;9.10;60.30;;;;;;5063364;28;20491;-64
2023/03/28 10:49:36;;;;;;;1.00;0.60;;;8.60;61.90;;;;;;5043251;28;20417;-70
2023/03/28 10:52:16;;;;;;;0.90;0.63;;;8.10;63.90;;;;;;5075946;28;20470;-56
2023/03/28 10:55:05;;;;;;;1.77;1.03;;;8.50;66.20;;;;;;5073533;28;20428;-59
2023/03/28 10:57:40;;;;;;;1.30;0.80;;;8.80;65.10;;;;;;5071723;28;20463;-64
2023/03/28 11:00:14;;;;;;;1.00;0.70;;;9.10;63.40;;;;;;5068058;28;20471;-61
2023/03/28 11:03:12;;;;;;;1.43;0.67;;;9.30;61.10;;;;;;5065433;28;20436;-57
2023/03/28 11:05:52;;;;;;;1.10;0.70;;;9.50;59.80;;;;;;5072132;28;20471;-61
2023/03/28 11:08:49;;;;;;;2.37;1.00;;;9.60;60.90;;;;;;5075293;28;20426;-59
2023/03/28 11:11:34;;;;;;;1.63;0.97;;;9.70;60.40;;;;;;5067577;28;20467;-69
2023/03/28 11:14:14;;;;;;;1.47;0.90;;;9.90;60.70;;;;;;5068620;28;20436;-59
2023/03/28 11:16:50;;;;;;;0.97;0.73;;;9.80;59.90;;;;;;5067752;28;20462;-70
2023/03/28 11:19:31;;;;;;;1.23;0.83;;;9.70;60.20;;;;;;5071734;28;20412;-58
2023/03/28 11:22:11;;;;;;;1.20;0.80;;;9.40;62.10;;;;;;5062291;28;20484;-61
2023/03/28 11:24:48;;;;;;;3.10;0.80;;;9.40;60.80;;;;;;5063697;28;20520;-57
2023/03/28 11:27:25;;;;;;;2.17;1.00;;;9.40;60.50;;;;;;5076480;28;20415;-63
2023/03/28 11:29:57;;;;;;;1.60;0.90;;;9.40;60.80;;;;;;5065756;28;20455;-61
2023/03/28 11:32:30;;;;;;;1.10;0.80;;;9.10;59.80;;;;;;5075122;28;20443;-64
2023/03/28 11:35:06;;;;;;;1.10;0.80;;;9.10;60.20;;;;;;5061483;28;20444;-71
2023/03/28 11:37:40;;;;;;;4.30;1.80;;;9.10;60.10;;;;;;5073235;28;20467;-66
2023/03/28 11:40:21;;;;;;;2.10;1.53;;;9.00;62.70;;;;;;5076303;28;20495;-50
2023/03/28 11:42:54;;;;;;;1.30;0.80;;;9.00;61.40;;;;;;5058749;28;20475;-64
2023/03/28 11:45:30;;;;;;;3.00;1.00;;;8.90;62.50;;;;;;5077680;28;20454;-66
2023/03/28 11:48:08;;;;;;;1.57;0.90;;;8.80;62.30;;;;;;5064970;28;20451;-69
2023/03/28 11:50:50;;;;;;;1.10;0.70;;;8.90;63.00;;;;;;5063335;28;20486;-59
2023/03/28 11:53:25;;;;;;;1.23;0.70;;;8.80;60.90;;;;;;5059674;28;20466;-67
2023/03/28 11:55:59;;;;;;;1.00;0.70;;;8.70;61.50;;;;;;5071630;28;20439;-59
2023/03/28 11:58:39;;;;;;;1.40;0.77;;;8.90;61.50;;;;;;5066690;28;20710;-60
2023/03/28 12:01:11;;;;;;;0.90;0.70;;;8.90;60.20;;;;;;5065577;28;20478;-55
2023/03/28 12:03:50;;;;;;;1.50;0.80;;;8.90;59.30;;;;;;5060902;28;20479;-60
2023/03/28 12:06:22;;;;;;;0.90;0.70;;;8.90;58.70;;;;;;5054149;28;20486;-66
2023/03/28 12:08:56;;;;;;;1.00;0.70;;;8.90;59.00;;;;;;5067649;28;20506;-69
2023/03/28 12:11:29;;;;;;;1.30;0.90;;;9.00;58.50;;;;;;5059717;28;20443;-69
2023/03/28 12:14:01;;;;;;;1.87;0.80;;;8.90;59.00;;;;;;5067039;28;20469;-58
2023/03/28 12:16:35;;;;;;;2.20;0.80;;;9.00;58.00;;;;;;5047250;28;20486;-69
2023/03/28 12:19:06;;;;;;;1.13;0.73;;;9.00;57.80;;;;;;5065249;28;20431;-70
2023/03/28 12:21:37;;;;;;;1.10;0.70;;;9.10;57.30;;;;;;5071958;28;20498;-68
2023/03/28 12:24:14;;;;;;;1.10;0.70;;;8.90;57.00;;;;;;5075999;28;20453;-64
2023/03/28 12:26:58;;;;;;;2.40;0.80;;;8.90;58.00;;;;;;5065900;28;20414;-56
2023/03/28 12:29:32;;;;;;;1.77;0.90;;;8.90;57.30;;;;;;5059477;28;20482;-67
2023/03/28 12:32:04;;;;;;;1.43;1.33;;;9.00;57.30;;;;;;5075865;28;20690;-64
2023/03/28 12:34:38;;;;;;;1.10;0.77;;;9.10;57.20;;;;;;5079373;28;20415;-61
2023/03/28 12:37:13;;;;;;;2.90;0.97;;;9.00;57.20;;;;;;5079780;28;20436;-60
2023/03/28 12:39:47;;;;;;;1.20;0.70;;;8.90;57.30;;;;;;5079633;28;20490;-62
2023/03/28 12:42:23;;;;;;;1.47;0.93;;;8.80;57.10;;;;;;5076783;28;20485;-57
2023/03/28 12:44:56;;;;;;;1.30;0.90;;;8.50;56.80;;;;;;5072608;28;20463;-70
2023/03/28 12:47:31;;;;;;;2.00;0.83;;;8.40;57.10;;;;;;5076883;28;20442;-55
2023/03/28 12:50:04;;;;;;;1.20;0.63;;;8.30;58.70;;;;;;5078644;28;20445;-68
2023/03/28 12:52:36;;;;;;;1.73;0.80;;;8.20;57.80;;;;;;5078589;28;20465;-55
2023/03/28 12:55:12;;;;;;;1.63;0.80;;;8.00;57.90;;;;;;5076452;28;20471;-58
2023/03/28 12:57:47;;;;;;;1.63;0.67;;;7.80;58.60;;;;;;5078176;28;21148;-53
2023/03/28 13:00:31;;;;;;;1.30;0.80;;;8.00;60.20;;;;;;5062675;28;20494;-69
2023/03/28 13:03:17;;;;;;;1.67;0.97;;;8.40;60.10;;;;;;5069301;28;20467;-65
2023/03/28 13:05:54;;;;;;;3.50;1.17;;;8.80;59.10;;;;;;5078602;28;20508;-58
2023/03/28 13:08:30;;;;;;;1.10;0.73;;;9.10;58.40;;;;;;5079038;28;20458;-59
2023/03/28 13:11:07;;;;;;;2.40;1.17;;;9.30;58.30;;;;;;5075558;28;20467;-71
2023/03/28 13:13:46;;;;;;;1.30;0.83;;;9.50;56.60;;;;;;5068439;28;20439;-59
2023/03/28 13:16:56;;;;;;;1.00;0.77;;;9.50;56.70;;;;;;5078634;28;20518;-63
2023/03/28 13:19:38;;;;;;;1.77;0.90;;;9.50;57.00;;;;;;5074313;28;20458;-69